Flight Track Log - Related Links

Times and Time Zones

All times are in EDT time to prevent confusion due to time zone crossing. See the JTA76 flight status page for this flight to view local times or setup timezone preferences in your user account.

Time Position Orientation Groundspeed Altitude Reporting Facility
EDT Latitude Longitude Course Direction KTS MPH feet Rate Location/Type
Thu 06:22:00 AM 24.5816 124.4631 47° Northeast  Level Estimated
Thu 06:23:00 AM 24.6606 124.5554 47° Northeast  Level Estimated
Thu 06:24:00 AM 24.7395 124.6478 47° Northeast  Level Estimated
Thu 06:25:00 AM 24.8183 124.7403 47° Northeast  Level Estimated
Thu 06:26:00 AM 24.8970 124.8330 47° Northeast  Level Estimated
Thu 06:27:00 AM 24.9757 124.9257 47° Northeast  Level Estimated
Thu 06:28:00 AM 25.0544 125.0186 47° Northeast  Level Estimated
Thu 06:29:00 AM 25.1330 125.1116 47° Northeast  Level Estimated
Thu 06:30:00 AM 25.2115 125.2047 47° Northeast  Level Estimated
Thu 06:31:00 AM 25.2900 125.2979 47° Northeast  Level Estimated
Thu 06:32:00 AM 25.3684 125.3913 47° Northeast  Level Estimated
Thu 06:33:00 AM 25.4478 125.4860 47° Northeast  Level Estimated
Thu 06:34:00 AM 25.5271 125.5808 47° Northeast  Level Estimated
Thu 06:35:00 AM 25.6064 125.6758 47° Northeast  Level Estimated
Thu 06:36:00 AM 25.6856 125.7709 47° Northeast  Level Estimated
Thu 06:37:00 AM 25.7647 125.8661 47° Northeast  Level Estimated
Thu 06:38:00 AM 25.8438 125.9615 47° Northeast  Level Estimated
Thu 06:39:00 AM 25.9228 126.0570 47° Northeast  Level Estimated
Thu 06:40:00 AM 26.0018 126.1526 47° Northeast  Level Estimated
Thu 06:41:00 AM 26.0807 126.2483 47° Northeast  Level Estimated
Thu 06:42:00 AM 26.1595 126.3442 47° Northeast  Level Estimated
Thu 06:43:00 AM 26.2383 126.4402 48° Northeast  Level Estimated
Thu 06:44:00 AM 26.3170 126.5363 48° Northeast  Level Estimated
Thu 06:45:00 AM 26.3957 126.6325 48° Northeast  Level Estimated
Thu 06:46:00 AM 26.4743 126.7289 48° Northeast  Level Estimated
Thu 06:47:00 AM 26.5528 126.8254 48° Northeast  Level Estimated
Thu 06:48:00 AM 26.6307 126.9214 48° Northeast  Level Estimated
Thu 06:49:00 AM 26.7086 127.0176 48° Northeast  Level Estimated
Thu 06:50:00 AM 26.7864 127.1139 48° Northeast  Level Estimated
Thu 06:51:00 AM 26.8641 127.2103 48° Northeast  Level Estimated
Thu 06:52:00 AM 26.9418 127.3068 48° Northeast  Level Estimated
Thu 06:53:00 AM 27.0194 127.4035 48° Northeast  Level Estimated
Thu 06:54:00 AM 27.0969 127.5003 48° Northeast  Level Estimated
Thu 06:55:00 AM 27.1744 127.5972 48° Northeast  Level Estimated
Thu 06:56:00 AM 27.2518 127.6943 48° Northeast  Level Estimated
Thu 06:57:00 AM 27.3292 127.7915 48° Northeast  Level Estimated
Thu 06:58:00 AM 27.4064 127.8888 48° Northeast  Level Estimated
Thu 06:59:00 AM 27.4836 127.9863 48° Northeast  Level Estimated
Thu 07:00:00 AM 27.5608 128.0839 48° Northeast  Level Estimated
Thu 07:01:00 AM 27.6378 128.1817 48° Northeast  Level Estimated
Thu 07:02:00 AM 27.7148 128.2796 48° Northeast  Level Estimated
Thu 07:03:00 AM 27.7918 128.3776 48° Northeast  Level Estimated
Thu 07:04:00 AM 27.8686 128.4758 48° Northeast  Level Estimated
Thu 07:05:00 AM 27.9454 128.5741 49° Northeast  Level Estimated
Thu 07:06:00 AM 28.0221 128.6725 49° Northeast  Level Estimated
Thu 07:07:00 AM 28.0988 128.7711 49° Northeast  Level Estimated
Thu 07:08:00 AM 28.1754 128.8698 49° Northeast  Level Estimated
Thu 07:09:00 AM 28.2519 128.9687 49° Northeast  Level Estimated
Thu 07:10:00 AM 28.3283 129.0677 49° Northeast  Level Estimated
Thu 07:11:00 AM 28.4047 129.1669 49° Northeast  Level Estimated
Thu 07:12:00 AM 28.4810 129.2662 49° Northeast  Level Estimated
Thu 07:13:00 AM 28.5572 129.3656 49° Northeast  Level Estimated
Thu 07:14:00 AM 28.6334 129.4652 49° Northeast  Level Estimated
Thu 07:15:00 AM 28.7094 129.5649 49° Northeast  Level Estimated
Thu 07:16:00 AM 28.7854 129.6648 49° Northeast  Level Estimated
Thu 07:17:00 AM 28.8614 129.7648 49° Northeast  Level Estimated
Thu 07:18:00 AM 28.9372 129.8650 49° Northeast  Level Estimated
Thu 07:19:00 AM 29.0130 129.9653 49° Northeast  Level Estimated
Thu 07:20:00 AM 29.0887 130.0657 49° Northeast  Level Estimated
Thu 07:21:00 AM 29.1644 130.1664 49° Northeast  Level Estimated
Thu 07:22:00 AM 29.2399 130.2671 49° Northeast  Level Estimated
Thu 07:23:00 AM 29.3154 130.3680 49° Northeast  Level Estimated
Thu 07:24:00 AM 29.3908 130.4691 49° Northeast  Level Estimated
Thu 07:25:00 AM 29.4661 130.5703 49° Northeast  Level Estimated
Thu 07:26:00 AM 29.5414 130.6716 50° Northeast  Level Estimated
Thu 07:27:00 AM 29.6166 130.7731 50° Northeast  Level Estimated
Thu 07:28:00 AM 29.6917 130.8748 50° Northeast  Level Estimated
Thu 07:29:00 AM 29.7667 130.9766 50° Northeast  Level Estimated
Thu 07:30:00 AM 29.8416 131.0785 50° Northeast  Level Estimated
Thu 07:31:00 AM 29.9165 131.1806 50° Northeast  Level Estimated
Thu 07:32:00 AM 29.9913 131.2829 50° Northeast  Level Estimated
Thu 07:33:00 AM 30.0660 131.3853 50° Northeast  Level Estimated
Thu 07:34:00 AM 30.1406 131.4879 50° Northeast  Level Estimated
Thu 07:35:00 AM 30.2152 131.5906 50° Northeast  Level Estimated
Thu 07:36:00 AM 30.2896 131.6935 50° Northeast  Level Estimated
Thu 07:37:00 AM 30.3645 131.7973 50° Northeast  Level Estimated
Thu 07:38:00 AM 30.4393 131.9012 50° Northeast  Level Estimated
Thu 07:39:00 AM 30.5140 132.0052 50° Northeast  Level Estimated
Thu 07:40:00 AM 30.5887 132.1094 50° Northeast  Level Estimated
Thu 07:41:00 AM 30.6632 132.2138 50° Northeast  Level Estimated
Thu 07:42:00 AM 30.7377 132.3183 50° Northeast  Level Estimated
Thu 07:43:00 AM 30.8121 132.4230 50° Northeast  Level Estimated
Thu 07:44:00 AM 30.8864 132.5278 50° Northeast  Level Estimated
Thu 07:45:00 AM 30.9606 132.6329 50° Northeast  Level Estimated
Thu 07:46:00 AM 31.0347 132.7381 51° Northeast  Level Estimated
Thu 07:47:00 AM 31.1088 132.8434 51° Northeast  Level Estimated
Thu 07:48:00 AM 31.1827 132.9489 51° Northeast  Level Estimated
Thu 07:49:00 AM 31.2566 133.0546 51° Northeast  Level Estimated
Thu 07:50:00 AM 31.3304 133.1604 51° Northeast  Level Estimated
Thu 07:51:00 AM 31.4041 133.2664 51° Northeast  Level Estimated
Thu 07:52:00 AM 31.4777 133.3726 51° Northeast  Level Estimated
Thu 07:53:00 AM 31.5512 133.4789 51° Northeast  Level Estimated
Thu 07:54:00 AM 31.6247 133.5854 51° Northeast  Level Estimated
Thu 07:55:00 AM 31.6980 133.6921 51° Northeast  Level Estimated
Thu 07:56:00 AM 31.7713 133.7989 51° Northeast  Level Estimated
Thu 07:57:00 AM 31.8444 133.9059 51° Northeast  Level Estimated
Thu 07:58:00 AM 31.9175 134.0131 51° Northeast  Level Estimated
Thu 07:59:00 AM 31.9905 134.1205 51° Northeast  Level Estimated
Thu 08:00:00 AM 32.0634 134.2280 51° Northeast  Level Estimated
Thu 08:01:00 AM 32.1362 134.3357 51° Northeast  Level Estimated
Thu 08:02:00 AM 32.2089 134.4436 51° Northeast  Level Estimated
Thu 08:03:00 AM 32.2816 134.5516 51° Northeast  Level Estimated
Thu 08:04:00 AM 32.3546 134.6605 52° Northeast  Level Estimated
Thu 08:05:00 AM 32.4275 134.7697 52° Northeast  Level Estimated
Thu 08:06:00 AM 32.5004 134.8789 52° Northeast  Level Estimated
Thu 08:07:00 AM 32.5731 134.9884 52° Northeast  Level Estimated
Thu 08:08:00 AM 32.6457 135.0981 52° Northeast  Level Estimated
Thu 08:09:00 AM 32.7183 135.2079 52° Northeast  Level Estimated
Thu 08:10:00 AM 32.7907 135.3179 52° Northeast  Level Estimated
Thu 08:11:00 AM 32.8631 135.4281 52° Northeast  Level Estimated
Thu 08:12:00 AM 32.9353 135.5384 52° Northeast  Level Estimated
Thu 08:13:00 AM 33.0075 135.6490 52° Northeast  Level Estimated
Thu 08:14:00 AM 33.0796 135.7597 52° Northeast  Level Estimated
Thu 08:15:00 AM 33.1515 135.8706 52° Northeast  Level Estimated
Thu 08:16:00 AM 33.2234 135.9817 52° Northeast  Level Estimated
Thu 08:17:00 AM 33.2952 136.0929 52° Northeast  Level Estimated
Thu 08:18:00 AM 33.3668 136.2044 52° Northeast  Level Estimated
Thu 08:19:00 AM 33.4384 136.3160 52° Northeast  Level Estimated
Thu 08:20:00 AM 33.5099 136.4279 53° Northeast  Level Estimated
Thu 08:21:00 AM 33.5812 136.5399 53° Northeast  Level Estimated
Thu 08:22:00 AM 33.6525 136.6520 53° Northeast  Level Estimated
Thu 08:23:00 AM 33.7237 136.7644 53° Northeast  Level Estimated
Thu 08:24:00 AM 33.7947 136.8770 53° Northeast  Level Estimated
Thu 08:25:00 AM 33.8657 136.9897 53° Northeast  Level Estimated
Thu 08:26:00 AM 33.9366 137.1027 53° Northeast  Level Estimated
Thu 08:27:00 AM 34.0073 137.2158 53° Northeast  Level Estimated
Thu 08:28:00 AM 34.0779 137.3291 53° Northeast  Level Estimated
Thu 08:29:00 AM 34.1485 137.4426 53° Northeast  Level Estimated
Thu 08:30:00 AM 34.2189 137.5563 53° Northeast  Level Estimated
Thu 08:31:00 AM 34.2893 137.6702 53° Northeast  Level Estimated
Thu 08:32:00 AM 34.3595 137.7842 53° Northeast  Level Estimated
Thu 08:33:00 AM 34.4296 137.8985 53° Northeast  Level Estimated
Thu 08:34:00 AM 34.4996 138.0130 53° Northeast  Level Estimated
Thu 08:35:00 AM 34.5696 138.1276 53° Northeast  Level Estimated
Thu 08:36:00 AM 34.6394 138.2424 54° Northeast  Level Estimated
Thu 08:37:00 AM 34.7091 138.3575 54° Northeast  Level Estimated
Thu 08:38:00 AM 34.7786 138.4727 54° Northeast  Level Estimated
Thu 08:39:00 AM 34.8481 138.5881 54° Northeast  Level Estimated
Thu 08:40:00 AM 34.9175 138.7038 54° Northeast  Level Estimated
Thu 08:41:00 AM 34.9868 138.8196 54° Northeast  Level Estimated
Thu 08:42:00 AM 35.0559 138.9356 54° Northeast  Level Estimated
Thu 08:43:00 AM 35.1250 139.0518 54° Northeast  Level Estimated
Thu 08:44:00 AM 35.1939 139.1682 54° Northeast  Level Estimated
Thu 08:45:00 AM 35.2627 139.2848 54° Northeast  Level Estimated
Thu 08:46:00 AM 35.3314 139.4016 54° Northeast  Level Estimated
Thu 08:47:00 AM 35.4000 139.5186 54° Northeast  Level Estimated
Thu 08:48:00 AM 35.4685 139.6358 54° Northeast  Level Estimated
Thu 08:49:00 AM 35.5368 139.7532 54° Northeast  Level Estimated
Thu 08:50:00 AM 35.5523 139.7797 54° Northeast  Level Estimated
Thu 08:51:00 AM 35.5523 139.7797 122° Southeast  Level Estimated
Thu 08:52:00 AM 35.5523 139.7797 122° Southeast  Level Estimated
Thu 08:53:00 AM 35.5523 139.7797 122° Southeast  Level Estimated
Thu 08:54:00 AM 35.5523 139.7797 122° Southeast  Level Estimated
Thu 08:55:00 AM 35.5523 139.7797 122° Southeast  Level Estimated
Thu 08:56:00 AM 35.5523 139.7797 122° Southeast  Level Estimated
Thu 08:57:00 AM 35.5523 139.7797 122° Southeast  Level Estimated
Thu 08:58:00 AM 35.5523 139.7797 122° Southeast  Level Estimated
Thu 08:59:00 AM 35.5523 139.7797 122° Southeast  Level Estimated
Thu 09:00:00 AM 35.5523 139.7797 122° Southeast  Level Estimated
Thu 09:01:00 AM 35.5523 139.7797 122° Southeast  Level Estimated
Thu 09:02:00 AM 35.5523 139.7797 122° Southeast  Level Estimated
Thu 09:03:00 AM 35.5523 139.7797 122° Southeast  Level Estimated

Login

Don't have an account? Register now (free) for customized features, flight alerts, and more!